sensor_id;sensor_type;location;lat;lon;timestamp;temperature;humidity
19088;DHT22;9676;50.916;13.352;2022-08-01T00:00:24;25.00;48.10
19088;DHT22;9676;50.916;13.352;2022-08-01T00:03:14;25.00;48.20
19088;DHT22;9676;50.916;13.352;2022-08-01T00:06:03;24.90;48.10
19088;DHT22;9676;50.916;13.352;2022-08-01T00:08:53;24.90;48.10
19088;DHT22;9676;50.916;13.352;2022-08-01T00:11:43;24.90;48.70
19088;DHT22;9676;50.916;13.352;2022-08-01T00:14:42;24.90;48.10
19088;DHT22;9676;50.916;13.352;2022-08-01T00:17:33;24.80;48.10
19088;DHT22;9676;50.916;13.352;2022-08-01T00:20:23;24.80;48.10
19088;DHT22;9676;50.916;13.352;2022-08-01T00:23:12;24.80;48.10
19088;DHT22;9676;50.916;13.352;2022-08-01T00:26:02;24.70;48.00
19088;DHT22;9676;50.916;13.352;2022-08-01T00:28:52;24.70;48.10
19088;DHT22;9676;50.916;13.352;2022-08-01T00:31:41;24.60;48.00
19088;DHT22;9676;50.916;13.352;2022-08-01T00:34:33;24.60;48.10
19088;DHT22;9676;50.916;13.352;2022-08-01T00:37:23;24.50;48.10
19088;DHT22;9676;50.916;13.352;2022-08-01T00:40:12;24.50;48.10
19088;DHT22;9676;50.916;13.352;2022-08-01T00:43:02;24.40;48.10
19088;DHT22;9676;50.916;13.352;2022-08-01T00:45:51;24.40;48.20
19088;DHT22;9676;50.916;13.352;2022-08-01T00:48:41;24.30;48.20
19088;DHT22;9676;50.916;13.352;2022-08-01T00:51:33;24.20;48.20
19088;DHT22;9676;50.916;13.352;2022-08-01T00:54:24;24.20;48.40
19088;DHT22;9676;50.916;13.352;2022-08-01T00:57:13;24.10;48.40
19088;DHT22;9676;50.916;13.352;2022-08-01T01:00:23;24.00;48.40
19088;DHT22;9676;50.916;13.352;2022-08-01T01:03:14;24.00;48.50
19088;DHT22;9676;50.916;13.352;2022-08-01T01:06:15;23.90;48.60
19088;DHT22;9676;50.916;13.352;2022-08-01T01:09:27;23.90;49.10
19088;DHT22;9676;50.916;13.352;2022-08-01T01:12:26;23.80;49.10
19088;DHT22;9676;50.916;13.352;2022-08-01T01:15:30;23.80;49.00
19088;DHT22;9676;50.916;13.352;2022-08-01T01:18:27;23.80;49.20
19088;DHT22;9676;50.916;13.352;2022-08-01T01:21:39;23.80;49.10
19088;DHT22;9676;50.916;13.352;2022-08-01T01:24:44;23.80;49.60
19088;DHT22;9676;50.916;13.352;2022-08-01T01:27:50;23.80;49.20
19088;DHT22;9676;50.916;13.352;2022-08-01T01:30:44;23.70;49.50
19088;DHT22;9676;50.916;13.352;2022-08-01T01:33:36;23.70;49.20
19088;DHT22;9676;50.916;13.352;2022-08-01T01:36:35;23.60;49.20
19088;DHT22;9676;50.916;13.352;2022-08-01T01:39:26;23.60;49.20
19088;DHT22;9676;50.916;13.352;2022-08-01T01:42:19;23.50;49.30
19088;DHT22;9676;50.916;13.352;2022-08-01T01:45:09;23.50;49.40
19088;DHT22;9676;50.916;13.352;2022-08-01T01:48:01;23.40;49.30
19088;DHT22;9676;50.916;13.352;2022-08-01T01:50:52;23.40;49.40
19088;DHT22;9676;50.916;13.352;2022-08-01T01:53:43;23.40;49.60
19088;DHT22;9676;50.916;13.352;2022-08-01T01:56:33;23.30;49.70
19088;DHT22;9676;50.916;13.352;2022-08-01T01:59:38;23.30;49.80
19088;DHT22;9676;50.916;13.352;2022-08-01T02:02:29;23.30;49.90
19088;DHT22;9676;50.916;13.352;2022-08-01T02:05:20;23.30;50.00
19088;DHT22;9676;50.916;13.352;2022-08-01T02:08:11;23.30;50.20
19088;DHT22;9676;50.916;13.352;2022-08-01T02:11:05;23.30;50.20
19088;DHT22;9676;50.916;13.352;2022-08-01T02:14:10;23.40;50.30
19088;DHT22;9676;50.916;13.352;2022-08-01T02:17:00;23.40;50.30
19088;DHT22;9676;50.916;13.352;2022-08-01T02:19:53;23.40;50.40
19088;DHT22;9676;50.916;13.352;2022-08-01T02:22:47;23.40;50.50
19088;DHT22;9676;50.916;13.352;2022-08-01T02:25:42;23.40;50.60
19088;DHT22;9676;50.916;13.352;2022-08-01T02:28:59;23.50;50.60
19088;DHT22;9676;50.916;13.352;2022-08-01T02:31:54;23.50;50.60
19088;DHT22;9676;50.916;13.352;2022-08-01T02:34:47;23.50;50.50
19088;DHT22;9676;50.916;13.352;2022-08-01T02:37:39;23.60;50.70
19088;DHT22;9676;50.916;13.352;2022-08-01T02:40:38;23.60;50.60
19088;DHT22;9676;50.916;13.352;2022-08-01T02:43:30;23.60;50.70
19088;DHT22;9676;50.916;13.352;2022-08-01T02:46:34;23.60;50.70
19088;DHT22;9676;50.916;13.352;2022-08-01T02:49:27;23.60;51.10
19088;DHT22;9676;50.916;13.352;2022-08-01T02:52:20;23.60;50.70
19088;DHT22;9676;50.916;13.352;2022-08-01T02:55:13;23.60;50.80
19088;DHT22;9676;50.916;13.352;2022-08-01T02:58:04;23.60;50.90
19088;DHT22;9676;50.916;13.352;2022-08-01T03:00:57;23.50;50.90
19088;DHT22;9676;50.916;13.352;2022-08-01T03:03:50;23.60;51.00
19088;DHT22;9676;50.916;13.352;2022-08-01T03:06:40;23.50;51.00
19088;DHT22;9676;50.916;13.352;2022-08-01T03:09:35;23.50;51.20
19088;DHT22;9676;50.916;13.352;2022-08-01T03:12:27;23.50;51.20
19088;DHT22;9676;50.916;13.352;2022-08-01T03:15:22;23.50;51.20
19088;DHT22;9676;50.916;13.352;2022-08-01T03:18:13;23.40;51.10
19088;DHT22;9676;50.916;13.352;2022-08-01T03:21:04;23.40;51.00
19088;DHT22;9676;50.916;13.352;2022-08-01T03:23:55;23.40;51.10
19088;DHT22;9676;50.916;13.352;2022-08-01T03:26:47;23.40;51.20
19088;DHT22;9676;50.916;13.352;2022-08-01T03:29:37;23.40;51.20
19088;DHT22;9676;50.916;13.352;2022-08-01T03:32:30;23.30;51.20
19088;DHT22;9676;50.916;13.352;2022-08-01T03:35:22;23.30;51.20
19088;DHT22;9676;50.916;13.352;2022-08-01T03:38:14;23.30;51.30
19088;DHT22;9676;50.916;13.352;2022-08-01T03:41:11;23.30;51.40
19088;DHT22;9676;50.916;13.352;2022-08-01T03:44:05;23.30;51.50
19088;DHT22;9676;50.916;13.352;2022-08-01T03:47:00;23.30;51.60
19088;DHT22;9676;50.916;13.352;2022-08-01T03:49:54;23.30;51.70
19088;DHT22;9676;50.916;13.352;2022-08-01T03:52:45;23.20;51.70
19088;DHT22;9676;50.916;13.352;2022-08-01T03:55:36;23.30;51.80
19088;DHT22;9676;50.916;13.352;2022-08-01T03:58:27;23.30;51.90
19088;DHT22;9676;50.916;13.352;2022-08-01T04:01:17;23.30;51.90
19088;DHT22;9676;50.916;13.352;2022-08-01T04:04:07;23.30;51.90
19088;DHT22;9676;50.916;13.352;2022-08-01T04:06:58;23.30;52.00
19088;DHT22;9676;50.916;13.352;2022-08-01T04:09:52;23.30;52.10
19088;DHT22;9676;50.916;13.352;2022-08-01T04:12:41;23.30;52.20
19088;DHT22;9676;50.916;13.352;2022-08-01T04:15:31;23.30;52.20
19088;DHT22;9676;50.916;13.352;2022-08-01T04:18:20;23.30;52.30
19088;DHT22;9676;50.916;13.352;2022-08-01T04:21:10;23.30;52.40
19088;DHT22;9676;50.916;13.352;2022-08-01T04:24:04;23.30;52.40
19088;DHT22;9676;50.916;13.352;2022-08-01T04:26:57;23.40;52.60
19088;DHT22;9676;50.916;13.352;2022-08-01T04:29:48;23.40;52.60
19088;DHT22;9676;50.916;13.352;2022-08-01T04:32:42;23.40;52.60
19088;DHT22;9676;50.916;13.352;2022-08-01T04:35:33;23.40;52.70
19088;DHT22;9676;50.916;13.352;2022-08-01T04:38:45;23.40;52.70
19088;DHT22;9676;50.916;13.352;2022-08-01T04:41:40;23.40;52.80
19088;DHT22;9676;50.916;13.352;2022-08-01T04:44:30;23.50;53.00
19088;DHT22;9676;50.916;13.352;2022-08-01T04:47:20;23.50;53.10
19088;DHT22;9676;50.916;13.352;2022-08-01T04:50:11;23.50;53.10
19088;DHT22;9676;50.916;13.352;2022-08-01T04:53:01;23.60;53.30
19088;DHT22;9676;50.916;13.352;2022-08-01T04:55:51;23.60;53.30
19088;DHT22;9676;50.916;13.352;2022-08-01T04:58:42;23.60;53.50
19088;DHT22;9676;50.916;13.352;2022-08-01T05:01:32;23.70;53.70
19088;DHT22;9676;50.916;13.352;2022-08-01T05:04:22;23.70;53.70
19088;DHT22;9676;50.916;13.352;2022-08-01T05:07:12;23.80;54.00
19088;DHT22;9676;50.916;13.352;2022-08-01T05:10:04;23.90;54.20
19088;DHT22;9676;50.916;13.352;2022-08-01T05:12:54;23.90;54.20
19088;DHT22;9676;50.916;13.352;2022-08-01T05:15:45;24.00;54.40
19088;DHT22;9676;50.916;13.352;2022-08-01T05:18:34;24.00;54.60
19088;DHT22;9676;50.916;13.352;2022-08-01T05:21:24;24.10;54.70
19088;DHT22;9676;50.916;13.352;2022-08-01T05:24:14;24.20;54.80
19088;DHT22;9676;50.916;13.352;2022-08-01T05:27:04;24.20;54.80
19088;DHT22;9676;50.916;13.352;2022-08-01T05:29:54;24.30;55.00
19088;DHT22;9676;50.916;13.352;2022-08-01T05:32:45;24.30;55.00
19088;DHT22;9676;50.916;13.352;2022-08-01T05:35:34;24.40;55.30
19088;DHT22;9676;50.916;13.352;2022-08-01T05:38:35;24.40;55.20
19088;DHT22;9676;50.916;13.352;2022-08-01T05:41:24;24.40;55.20
19088;DHT22;9676;50.916;13.352;2022-08-01T05:44:14;24.40;55.30
19088;DHT22;9676;50.916;13.352;2022-08-01T05:47:03;24.40;55.30
19088;DHT22;9676;50.916;13.352;2022-08-01T05:49:54;24.40;55.40
19088;DHT22;9676;50.916;13.352;2022-08-01T05:52:44;24.40;55.40
19088;DHT22;9676;50.916;13.352;2022-08-01T05:55:34;24.40;55.50
19088;DHT22;9676;50.916;13.352;2022-08-01T05:58:23;24.40;55.60
19088;DHT22;9676;50.916;13.352;2022-08-01T06:01:13;24.40;55.70
19088;DHT22;9676;50.916;13.352;2022-08-01T06:04:03;24.40;55.70
19088;DHT22;9676;50.916;13.352;2022-08-01T06:06:54;24.40;55.80
19088;DHT22;9676;50.916;13.352;2022-08-01T06:09:43;24.40;55.90
19088;DHT22;9676;50.916;13.352;2022-08-01T06:12:33;24.40;56.00
19088;DHT22;9676;50.916;13.352;2022-08-01T06:15:23;24.40;56.10
19088;DHT22;9676;50.916;13.352;2022-08-01T06:18:12;24.40;56.80
19088;DHT22;9676;50.916;13.352;2022-08-01T06:21:02;24.40;56.10
19088;DHT22;9676;50.916;13.352;2022-08-01T06:23:53;24.50;56.30
19088;DHT22;9676;50.916;13.352;2022-08-01T06:26:43;24.50;56.40
19088;DHT22;9676;50.916;13.352;2022-08-01T06:29:32;24.50;56.30
19088;DHT22;9676;50.916;13.352;2022-08-01T06:32:23;24.50;56.30
19088;DHT22;9676;50.916;13.352;2022-08-01T06:35:14;24.50;56.30
19088;DHT22;9676;50.916;13.352;2022-08-01T06:38:04;24.50;56.30
19088;DHT22;9676;50.916;13.352;2022-08-01T06:40:55;24.50;56.40
19088;DHT22;9676;50.916;13.352;2022-08-01T06:43:45;24.50;56.50
19088;DHT22;9676;50.916;13.352;2022-08-01T06:46:34;24.50;56.60
19088;DHT22;9676;50.916;13.352;2022-08-01T06:49:24;24.50;56.60
19088;DHT22;9676;50.916;13.352;2022-08-01T06:52:13;24.50;56.60
19088;DHT22;9676;50.916;13.352;2022-08-01T06:55:04;24.50;56.60
19088;DHT22;9676;50.916;13.352;2022-08-01T06:57:55;24.50;56.70
19088;DHT22;9676;50.916;13.352;2022-08-01T07:00:45;24.50;57.50
19088;DHT22;9676;50.916;13.352;2022-08-01T07:03:35;24.60;57.00
19088;DHT22;9676;50.916;13.352;2022-08-01T07:06:41;24.60;57.10
19088;DHT22;9676;50.916;13.352;2022-08-01T07:09:30;24.60;57.10
19088;DHT22;9676;50.916;13.352;2022-08-01T07:12:20;24.60;57.20
19088;DHT22;9676;50.916;13.352;2022-08-01T07:15:11;24.70;57.30
19088;DHT22;9676;50.916;13.352;2022-08-01T07:18:01;24.70;57.40
19088;DHT22;9676;50.916;13.352;2022-08-01T07:20:51;24.70;57.40
19088;DHT22;9676;50.916;13.352;2022-08-01T07:23:43;24.80;57.60
19088;DHT22;9676;50.916;13.352;2022-08-01T07:26:33;24.80;57.70
19088;DHT22;9676;50.916;13.352;2022-08-01T07:29:23;24.90;58.00
19088;DHT22;9676;50.916;13.352;2022-08-01T07:32:14;24.90;58.00
19088;DHT22;9676;50.916;13.352;2022-08-01T07:35:05;24.90;57.90
19088;DHT22;9676;50.916;13.352;2022-08-01T07:37:55;25.00;58.00
19088;DHT22;9676;50.916;13.352;2022-08-01T07:40:45;25.00;58.00
19088;DHT22;9676;50.916;13.352;2022-08-01T07:43:34;25.00;58.10
19088;DHT22;9676;50.916;13.352;2022-08-01T07:46:24;25.00;58.10
19088;DHT22;9676;50.916;13.352;2022-08-01T07:49:15;25.10;58.20
19088;DHT22;9676;50.916;13.352;2022-08-01T07:52:05;25.10;58.20
19088;DHT22;9676;50.916;13.352;2022-08-01T07:54:54;25.10;58.30
19088;DHT22;9676;50.916;13.352;2022-08-01T07:57:44;25.10;58.30
19088;DHT22;9676;50.916;13.352;2022-08-01T08:00:34;25.10;58.40
19088;DHT22;9676;50.916;13.352;2022-08-01T08:03:23;25.10;58.50
19088;DHT22;9676;50.916;13.352;2022-08-01T08:06:14;25.20;58.60
19088;DHT22;9676;50.916;13.352;2022-08-01T08:09:03;25.20;58.70
19088;DHT22;9676;50.916;13.352;2022-08-01T08:11:53;25.20;58.70
19088;DHT22;9676;50.916;13.352;2022-08-01T08:14:42;25.20;58.90
19088;DHT22;9676;50.916;13.352;2022-08-01T08:17:32;25.30;59.10
19088;DHT22;9676;50.916;13.352;2022-08-01T08:20:23;25.30;59.40
19088;DHT22;9676;50.916;13.352;2022-08-01T08:23:16;25.30;59.80
19088;DHT22;9676;50.916;13.352;2022-08-01T08:26:30;25.50;60.10
19088;DHT22;9676;50.916;13.352;2022-08-01T08:29:20;25.60;59.90
19088;DHT22;9676;50.916;13.352;2022-08-01T08:32:10;25.60;59.80
19088;DHT22;9676;50.916;13.352;2022-08-01T08:35:00;25.60;59.70
19088;DHT22;9676;50.916;13.352;2022-08-01T08:37:50;25.60;59.80
19088;DHT22;9676;50.916;13.352;2022-08-01T08:40:44;25.60;59.70
19088;DHT22;9676;50.916;13.352;2022-08-01T08:43:35;25.60;59.80
19088;DHT22;9676;50.916;13.352;2022-08-01T08:46:26;25.60;59.80
19088;DHT22;9676;50.916;13.352;2022-08-01T08:49:18;25.60;60.10
19088;DHT22;9676;50.916;13.352;2022-08-01T08:52:10;25.60;60.90
19088;DHT22;9676;50.916;13.352;2022-08-01T08:55:00;25.70;62.90
19088;DHT22;9676;50.916;13.352;2022-08-01T08:57:51;26.20;66.60
19088;DHT22;9676;50.916;13.352;2022-08-01T09:00:41;26.90;69.70
19088;DHT22;9676;50.916;13.352;2022-08-01T09:03:35;27.70;69.50
19088;DHT22;9676;50.916;13.352;2022-08-01T09:06:24;28.50;67.50
19088;DHT22;9676;50.916;13.352;2022-08-01T09:09:14;29.00;65.50
19088;DHT22;9676;50.916;13.352;2022-08-01T09:12:05;29.50;64.20
19088;DHT22;9676;50.916;13.352;2022-08-01T09:14:56;29.70;62.90
19088;DHT22;9676;50.916;13.352;2022-08-01T09:17:46;30.00;62.30
19088;DHT22;9676;50.916;13.352;2022-08-01T09:20:35;30.20;61.90
19088;DHT22;9676;50.916;13.352;2022-08-01T09:23:31;30.50;62.10
19088;DHT22;9676;50.916;13.352;2022-08-01T09:26:30;30.80;61.80
19088;DHT22;9676;50.916;13.352;2022-08-01T09:29:24;31.10;61.60
19088;DHT22;9676;50.916;13.352;2022-08-01T09:32:26;31.50;62.20
19088;DHT22;9676;50.916;13.352;2022-08-01T09:35:24;32.00;61.50
19088;DHT22;9676;50.916;13.352;2022-08-01T09:38:19;32.30;59.90
19088;DHT22;9676;50.916;13.352;2022-08-01T09:41:11;32.40;58.50
19088;DHT22;9676;50.916;13.352;2022-08-01T09:44:01;32.40;57.90
19088;DHT22;9676;50.916;13.352;2022-08-01T09:46:52;32.50;58.60
19088;DHT22;9676;50.916;13.352;2022-08-01T09:49:44;32.70;58.90
19088;DHT22;9676;50.916;13.352;2022-08-01T09:52:39;32.90;58.40
19088;DHT22;9676;50.916;13.352;2022-08-01T09:55:28;33.00;57.60
19088;DHT22;9676;50.916;13.352;2022-08-01T09:58:18;33.10;57.00
19088;DHT22;9676;50.916;13.352;2022-08-01T10:01:08;33.00;56.40
19088;DHT22;9676;50.916;13.352;2022-08-01T10:04:05;33.00;56.00
19088;DHT22;9676;50.916;13.352;2022-08-01T10:07:06;32.80;55.50
19088;DHT22;9676;50.916;13.352;2022-08-01T10:10:09;32.70;55.40
19088;DHT22;9676;50.916;13.352;2022-08-01T10:13:02;32.60;55.90
19088;DHT22;9676;50.916;13.352;2022-08-01T10:15:52;32.70;57.10
19088;DHT22;9676;50.916;13.352;2022-08-01T10:18:45;32.90;57.40
19088;DHT22;9676;50.916;13.352;2022-08-01T10:21:36;33.10;57.00
19088;DHT22;9676;50.916;13.352;2022-08-01T10:24:47;33.20;56.70
19088;DHT22;9676;50.916;13.352;2022-08-01T10:27:38;33.40;56.30
19088;DHT22;9676;50.916;13.352;2022-08-01T10:30:29;33.50;55.90
19088;DHT22;9676;50.916;13.352;2022-08-01T10:33:21;33.60;55.40
19088;DHT22;9676;50.916;13.352;2022-08-01T10:36:31;33.60;54.90
19088;DHT22;9676;50.916;13.352;2022-08-01T10:39:28;33.60;54.80
19088;DHT22;9676;50.916;13.352;2022-08-01T10:42:21;33.50;54.30
19088;DHT22;9676;50.916;13.352;2022-08-01T10:45:13;33.50;54.00
19088;DHT22;9676;50.916;13.352;2022-08-01T10:48:10;33.30;53.50
19088;DHT22;9676;50.916;13.352;2022-08-01T10:51:09;33.20;53.20
19088;DHT22;9676;50.916;13.352;2022-08-01T10:54:06;33.00;53.00
19088;DHT22;9676;50.916;13.352;2022-08-01T10:56:59;32.90;53.80
19088;DHT22;9676;50.916;13.352;2022-08-01T10:59:51;33.00;55.60
19088;DHT22;9676;50.916;13.352;2022-08-01T11:02:58;33.40;56.70
19088;DHT22;9676;50.916;13.352;2022-08-01T11:05:52;34.00;56.90
19088;DHT22;9676;50.916;13.352;2022-08-01T11:08:50;34.80;57.70
19088;DHT22;9676;50.916;13.352;2022-08-01T11:11:59;35.50;56.70
19088;DHT22;9676;50.916;13.352;2022-08-01T11:15:25;36.20;55.50
19088;DHT22;9676;50.916;13.352;2022-08-01T11:18:30;36.90;55.00
19088;DHT22;9676;50.916;13.352;2022-08-01T11:21:58;37.40;54.20
19088;DHT22;9676;50.916;13.352;2022-08-01T11:24:55;37.60;52.80
19088;DHT22;9676;50.916;13.352;2022-08-01T11:27:49;37.50;52.10
19088;DHT22;9676;50.916;13.352;2022-08-01T11:31:31;37.40;51.60
19088;DHT22;9676;50.916;13.352;2022-08-01T11:34:51;37.20;50.40
19088;DHT22;9676;50.916;13.352;2022-08-01T11:37:42;36.90;49.80
19088;DHT22;9676;50.916;13.352;2022-08-01T11:40:31;36.50;49.90
19088;DHT22;9676;50.916;13.352;2022-08-01T11:43:21;36.30;49.70
19088;DHT22;9676;50.916;13.352;2022-08-01T11:46:12;36.00;49.40
19088;DHT22;9676;50.916;13.352;2022-08-01T11:49:24;35.60;49.20
19088;DHT22;9676;50.916;13.352;2022-08-01T11:52:18;35.30;49.30
19088;DHT22;9676;50.916;13.352;2022-08-01T11:55:11;35.00;49.20
19088;DHT22;9676;50.916;13.352;2022-08-01T11:58:05;34.70;49.20
19088;DHT22;9676;50.916;13.352;2022-08-01T12:01:12;34.50;49.30
19088;DHT22;9676;50.916;13.352;2022-08-01T12:04:03;34.20;49.60
19088;DHT22;9676;50.916;13.352;2022-08-01T12:06:55;34.10;49.90
19088;DHT22;9676;50.916;13.352;2022-08-01T12:09:44;33.90;49.70
19088;DHT22;9676;50.916;13.352;2022-08-01T12:12:36;33.80;49.50
19088;DHT22;9676;50.916;13.352;2022-08-01T12:15:32;33.60;49.40
19088;DHT22;9676;50.916;13.352;2022-08-01T12:18:23;33.40;49.50
19088;DHT22;9676;50.916;13.352;2022-08-01T12:21:12;33.20;49.60
19088;DHT22;9676;50.916;13.352;2022-08-01T12:24:04;33.10;49.70
19088;DHT22;9676;50.916;13.352;2022-08-01T12:26:53;33.00;49.80
19088;DHT22;9676;50.916;13.352;2022-08-01T12:29:43;32.90;50.00
19088;DHT22;9676;50.916;13.352;2022-08-01T12:32:35;32.80;49.90
19088;DHT22;9676;50.916;13.352;2022-08-01T12:35:27;32.80;50.00
19088;DHT22;9676;50.916;13.352;2022-08-01T12:38:20;32.60;50.60
19088;DHT22;9676;50.916;13.352;2022-08-01T12:41:14;32.60;50.00
19088;DHT22;9676;50.916;13.352;2022-08-01T12:44:13;32.50;50.20
19088;DHT22;9676;50.916;13.352;2022-08-01T12:47:05;32.60;50.30
19088;DHT22;9676;50.916;13.352;2022-08-01T12:49:56;32.50;50.40
19088;DHT22;9676;50.916;13.352;2022-08-01T12:52:46;32.50;50.40
19088;DHT22;9676;50.916;13.352;2022-08-01T12:55:44;32.50;50.40
19088;DHT22;9676;50.916;13.352;2022-08-01T12:58:48;32.50;50.40
19088;DHT22;9676;50.916;13.352;2022-08-01T13:01:37;32.40;50.10
19088;DHT22;9676;50.916;13.352;2022-08-01T13:04:28;32.30;50.00
19088;DHT22;9676;50.916;13.352;2022-08-01T13:07:17;32.20;49.90
19088;DHT22;9676;50.916;13.352;2022-08-01T13:10:08;32.10;49.80
19088;DHT22;9676;50.916;13.352;2022-08-01T13:12:58;32.10;49.80
19088;DHT22;9676;50.916;13.352;2022-08-01T13:16:02;31.90;50.40
19088;DHT22;9676;50.916;13.352;2022-08-01T13:18:54;31.90;49.90
19088;DHT22;9676;50.916;13.352;2022-08-01T13:21:54;31.90;50.10
19088;DHT22;9676;50.916;13.352;2022-08-01T13:24:44;31.90;50.20
19088;DHT22;9676;50.916;13.352;2022-08-01T13:27:33;31.80;50.10
19088;DHT22;9676;50.916;13.352;2022-08-01T13:30:25;31.70;50.10
19088;DHT22;9676;50.916;13.352;2022-08-01T13:33:16;31.70;50.10
19088;DHT22;9676;50.916;13.352;2022-08-01T13:36:06;31.70;50.10
19088;DHT22;9676;50.916;13.352;2022-08-01T13:38:56;31.70;50.10
19088;DHT22;9676;50.916;13.352;2022-08-01T13:42:14;31.60;50.20
19088;DHT22;9676;50.916;13.352;2022-08-01T13:45:07;31.60;50.30
19088;DHT22;9676;50.916;13.352;2022-08-01T13:48:01;31.60;50.20
19088;DHT22;9676;50.916;13.352;2022-08-01T13:51:07;31.60;50.10
19088;DHT22;9676;50.916;13.352;2022-08-01T13:54:09;31.60;49.90
19088;DHT22;9676;50.916;13.352;2022-08-01T13:56:59;31.60;49.80
19088;DHT22;9676;50.916;13.352;2022-08-01T13:59:49;31.60;49.80
19088;DHT22;9676;50.916;13.352;2022-08-01T14:02:40;31.50;49.70
19088;DHT22;9676;50.916;13.352;2022-08-01T14:05:30;31.40;49.70
19088;DHT22;9676;50.916;13.352;2022-08-01T14:08:20;31.30;49.60
19088;DHT22;9676;50.916;13.352;2022-08-01T14:11:12;31.30;49.80
19088;DHT22;9676;50.916;13.352;2022-08-01T14:14:01;31.30;50.00
19088;DHT22;9676;50.916;13.352;2022-08-01T14:16:51;31.30;50.10
19088;DHT22;9676;50.916;13.352;2022-08-01T14:19:40;31.30;50.10
19088;DHT22;9676;50.916;13.352;2022-08-01T14:22:33;31.20;50.00
19088;DHT22;9676;50.916;13.352;2022-08-01T14:25:24;31.20;50.00
19088;DHT22;9676;50.916;13.352;2022-08-01T14:28:33;31.20;50.90
19088;DHT22;9676;50.916;13.352;2022-08-01T14:31:23;31.20;50.50
19088;DHT22;9676;50.916;13.352;2022-08-01T14:34:15;31.30;50.50
19088;DHT22;9676;50.916;13.352;2022-08-01T14:37:05;31.30;50.30
19088;DHT22;9676;50.916;13.352;2022-08-01T14:39:54;31.30;50.10
19088;DHT22;9676;50.916;13.352;2022-08-01T14:42:47;31.30;50.10
19088;DHT22;9676;50.916;13.352;2022-08-01T14:45:36;31.20;50.10
19088;DHT22;9676;50.916;13.352;2022-08-01T14:48:26;31.20;50.10
19088;DHT22;9676;50.916;13.352;2022-08-01T14:51:17;31.20;50.20
19088;DHT22;9676;50.916;13.352;2022-08-01T14:54:06;31.20;50.30
19088;DHT22;9676;50.916;13.352;2022-08-01T14:56:56;31.20;50.30
19088;DHT22;9676;50.916;13.352;2022-08-01T14:59:47;31.20;50.40
19088;DHT22;9676;50.916;13.352;2022-08-01T15:02:37;31.20;50.60
19088;DHT22;9676;50.916;13.352;2022-08-01T15:05:26;31.20;50.70
19088;DHT22;9676;50.916;13.352;2022-08-01T15:08:16;31.20;50.80
19088;DHT22;9676;50.916;13.352;2022-08-01T15:11:06;31.30;50.80
19088;DHT22;9676;50.916;13.352;2022-08-01T15:13:56;31.30;50.60
19088;DHT22;9676;50.916;13.352;2022-08-01T15:17:04;31.30;50.60
19088;DHT22;9676;50.916;13.352;2022-08-01T15:19:56;31.30;50.30
19088;DHT22;9676;50.916;13.352;2022-08-01T15:22:47;31.30;50.30
19088;DHT22;9676;50.916;13.352;2022-08-01T15:25:37;31.30;50.40
19088;DHT22;9676;50.916;13.352;2022-08-01T15:28:28;31.30;50.30
19088;DHT22;9676;50.916;13.352;2022-08-01T15:31:18;31.30;50.20
19088;DHT22;9676;50.916;13.352;2022-08-01T15:34:09;31.20;50.00
19088;DHT22;9676;50.916;13.352;2022-08-01T15:36:58;31.20;49.90
19088;DHT22;9676;50.916;13.352;2022-08-01T15:39:48;31.10;49.80
19088;DHT22;9676;50.916;13.352;2022-08-01T15:42:44;31.00;49.90
19088;DHT22;9676;50.916;13.352;2022-08-01T15:45:33;30.90;49.80
19088;DHT22;9676;50.916;13.352;2022-08-01T15:48:38;30.80;49.80
19088;DHT22;9676;50.916;13.352;2022-08-01T15:51:29;30.80;49.90
19088;DHT22;9676;50.916;13.352;2022-08-01T15:54:19;30.70;50.00
19088;DHT22;9676;50.916;13.352;2022-08-01T15:57:08;30.60;49.90
19088;DHT22;9676;50.916;13.352;2022-08-01T15:59:58;30.50;49.90
19088;DHT22;9676;50.916;13.352;2022-08-01T16:02:47;30.40;49.90
19088;DHT22;9676;50.916;13.352;2022-08-01T16:05:37;30.40;50.10
19088;DHT22;9676;50.916;13.352;2022-08-01T16:08:32;30.30;50.20
19088;DHT22;9676;50.916;13.352;2022-08-01T16:11:22;30.30;50.30
19088;DHT22;9676;50.916;13.352;2022-08-01T16:14:14;30.20;50.20
19088;DHT22;9676;50.916;13.352;2022-08-01T16:17:04;30.20;50.30
19088;DHT22;9676;50.916;13.352;2022-08-01T16:19:53;30.10;50.30
19088;DHT22;9676;50.916;13.352;2022-08-01T16:22:43;30.00;50.20
19088;DHT22;9676;50.916;13.352;2022-08-01T16:25:34;30.00;50.20
19088;DHT22;9676;50.916;13.352;2022-08-01T16:28:23;29.90;50.40
19088;DHT22;9676;50.916;13.352;2022-08-01T16:31:13;29.80;50.30
19088;DHT22;9676;50.916;13.352;2022-08-01T16:34:22;29.80;50.40
19088;DHT22;9676;50.916;13.352;2022-08-01T16:37:12;29.70;50.30
19088;DHT22;9676;50.916;13.352;2022-08-01T16:40:01;29.70;50.30
19088;DHT22;9676;50.916;13.352;2022-08-01T16:42:52;29.60;50.30
19088;DHT22;9676;50.916;13.352;2022-08-01T16:45:45;29.50;50.30
19088;DHT22;9676;50.916;13.352;2022-08-01T16:48:35;29.50;50.40
19088;DHT22;9676;50.916;13.352;2022-08-01T16:51:24;29.40;50.40
19088;DHT22;9676;50.916;13.352;2022-08-01T16:54:14;29.40;50.40
19088;DHT22;9676;50.916;13.352;2022-08-01T16:57:12;29.30;50.50
19088;DHT22;9676;50.916;13.352;2022-08-01T17:00:07;29.20;50.40
19088;DHT22;9676;50.916;13.352;2022-08-01T17:03:08;29.20;50.50
19088;DHT22;9676;50.916;13.352;2022-08-01T17:06:18;29.10;50.50
19088;DHT22;9676;50.916;13.352;2022-08-01T17:09:09;29.10;50.60
19088;DHT22;9676;50.916;13.352;2022-08-01T17:11:58;29.00;50.50
19088;DHT22;9676;50.916;13.352;2022-08-01T17:14:48;29.00;50.50
19088;DHT22;9676;50.916;13.352;2022-08-01T17:17:39;28.90;50.40
19088;DHT22;9676;50.916;13.352;2022-08-01T17:20:28;28.90;50.40
19088;DHT22;9676;50.916;13.352;2022-08-01T17:23:18;28.80;50.30
19088;DHT22;9676;50.916;13.352;2022-08-01T17:26:08;28.70;50.20
19088;DHT22;9676;50.916;13.352;2022-08-01T17:28:57;28.60;50.20
19088;DHT22;9676;50.916;13.352;2022-08-01T17:31:47;28.50;50.30
19088;DHT22;9676;50.916;13.352;2022-08-01T17:34:38;28.40;50.40
19088;DHT22;9676;50.916;13.352;2022-08-01T17:37:27;28.30;50.40
19088;DHT22;9676;50.916;13.352;2022-08-01T17:40:17;28.20;50.50
19088;DHT22;9676;50.916;13.352;2022-08-01T17:43:26;28.10;50.50
19088;DHT22;9676;50.916;13.352;2022-08-01T17:46:16;28.00;50.50
19088;DHT22;9676;50.916;13.352;2022-08-01T17:49:06;28.00;50.60
19088;DHT22;9676;50.916;13.352;2022-08-01T17:51:58;27.90;50.70
19088;DHT22;9676;50.916;13.352;2022-08-01T17:54:48;27.80;50.80
19088;DHT22;9676;50.916;13.352;2022-08-01T17:57:37;27.80;50.80
19088;DHT22;9676;50.916;13.352;2022-08-01T18:00:27;27.70;50.80
19088;DHT22;9676;50.916;13.352;2022-08-01T18:03:16;27.60;50.80
19088;DHT22;9676;50.916;13.352;2022-08-01T18:06:17;27.50;50.80
19088;DHT22;9676;50.916;13.352;2022-08-01T18:09:11;27.50;50.80
19088;DHT22;9676;50.916;13.352;2022-08-01T18:12:01;27.40;50.90